Time;durP1;ratioP1;P1;durP2;ratioP2;P2;SDS_P1;SDS_P2;PMS_P1;PMS_P2;Temp;Humidity;BMP_temperature;BMP_pressure;BME280_temperature;BME280_humidity;BME280_pressure;Samples;Min_cycle;Max_cycle;Signal;HPM_P1;HPM_P2
2022/08/29 00:01:34;;;;;;;16.05;6.15;;;16.60;99.90;;;;;;5083973;28;20123;-73
2022/08/29 00:04:00;;;;;;;11.70;6.13;;;16.70;99.90;;;;;;5070043;28;20055;-73
2022/08/29 00:06:25;;;;;;;9.90;5.88;;;16.60;99.90;;;;;;5069842;28;20049;-73
2022/08/29 00:08:51;;;;;;;11.23;6.05;;;16.60;99.90;;;;;;5085471;28;20048;-73
2022/08/29 00:11:17;;;;;;;11.57;6.13;;;16.60;99.90;;;;;;5074234;28;20044;-73
2022/08/29 00:13:43;;;;;;;14.13;5.70;;;16.50;99.90;;;;;;5076869;28;20504;-73
2022/08/29 00:16:09;;;;;;;8.10;6.18;;;16.50;99.90;;;;;;5088782;28;20040;-73
2022/08/29 00:18:35;;;;;;;10.88;5.53;;;16.50;99.90;;;;;;5090881;28;20398;-73
2022/08/29 00:21:01;;;;;;;12.77;7.00;;;16.50;99.90;;;;;;5085100;28;20048;-73
2022/08/29 00:23:27;;;;;;;12.85;6.38;;;16.50;99.90;;;;;;5089458;28;20118;-73
2022/08/29 00:25:53;;;;;;;13.63;6.07;;;16.50;99.90;;;;;;5088748;28;20126;-73
2022/08/29 00:28:19;;;;;;;9.02;5.13;;;16.50;99.90;;;;;;5075601;28;20122;-73
2022/08/29 00:30:45;;;;;;;13.23;5.82;;;16.60;99.90;;;;;;5083586;28;20041;-73
2022/08/29 00:33:11;;;;;;;13.02;6.68;;;16.50;99.90;;;;;;5069468;28;20052;-73
2022/08/29 00:35:39;;;;;;;11.73;6.20;;;16.40;99.90;;;;;;5086813;28;20066;-73
2022/08/29 00:38:08;;;;;;;13.07;5.97;;;16.40;99.90;;;;;;5078701;28;20075;-73
2022/08/29 00:40:38;;;;;;;13.20;6.80;;;16.50;99.90;;;;;;5075218;28;20177;-73
2022/08/29 00:43:05;;;;;;;13.32;5.97;;;16.50;99.90;;;;;;5088364;28;20586;-73
2022/08/29 00:45:32;;;;;;;15.00;6.43;;;16.50;99.90;;;;;;5073982;28;20067;-73
2022/08/29 00:48:11;;;;;;;19.20;5.95;;;16.50;99.90;;;;;;5086610;28;20044;-73
2022/08/29 00:50:50;;;;;;;17.90;7.10;;;16.50;99.90;;;;;;5088256;28;20047;-73
2022/08/29 00:53:18;;;;;;;10.20;5.35;;;16.50;99.90;;;;;;5078556;28;20490;-73
2022/08/29 00:55:46;;;;;;;11.63;6.22;;;16.50;99.90;;;;;;5066473;28;20040;-73
2022/08/29 00:58:25;;;;;;;13.57;6.10;;;16.50;99.90;;;;;;5088030;28;20481;-73
2022/08/29 01:00:52;;;;;;;12.95;6.72;;;16.50;99.90;;;;;;5087459;28;20085;-73
2022/08/29 01:03:18;;;;;;;9.27;5.80;;;16.50;99.90;;;;;;5074852;28;20051;-73
2022/08/29 01:05:45;;;;;;;13.52;6.78;;;16.50;99.90;;;;;;5087806;28;20048;-72
2022/08/29 01:08:11;;;;;;;14.20;5.97;;;16.50;99.90;;;;;;5087383;28;20047;-73
2022/08/29 01:13:26;;;;;;;15.52;6.65;;;16.50;99.90;;;;;;5086361;28;20044;-73
2022/08/29 01:15:53;;;;;;;15.45;6.90;;;16.50;99.90;;;;;;5087097;28;20066;-73
2022/08/29 01:18:21;;;;;;;13.90;5.47;;;16.50;99.90;;;;;;5083665;28;20044;-73
2022/08/29 01:21:03;;;;;;;;;;;16.50;99.90;;;;;;5081816;28;20044;-73
2022/08/29 01:23:46;;;;;;;17.67;6.75;;;16.40;99.90;;;;;;5086350;28;21190;-73
2022/08/29 01:26:12;;;;;;;13.73;6.75;;;16.40;99.90;;;;;;5087776;28;20416;-73
2022/08/29 01:28:41;;;;;;;22.73;7.47;;;16.40;99.90;;;;;;5070238;28;20048;-73
2022/08/29 01:31:14;;;;;;;12.43;7.40;;;16.40;99.90;;;;;;5083894;28;20040;-73
2022/08/29 01:33:50;;;;;;;11.73;7.00;;;16.40;99.90;;;;;;5082662;28;20694;-73
2022/08/29 01:36:26;;;;;;;14.60;7.38;;;16.40;99.90;;;;;;5070865;28;20035;-73
2022/08/29 01:38:53;;;;;;;17.63;6.32;;;16.40;99.90;;;;;;5087379;28;20051;-73
2022/08/29 01:41:37;;;;;;;11.43;5.93;;;16.30;99.90;;;;;;5090837;28;20051;-73
2022/08/29 01:44:09;;;;;;;17.17;6.50;;;16.30;99.90;;;;;;5084825;28;20072;-74
2022/08/29 01:46:35;;;;;;;16.33;7.20;;;16.40;99.90;;;;;;5088150;28;20040;-73
2022/08/29 01:49:03;;;;;;;13.05;6.82;;;16.30;99.90;;;;;;5076060;28;20059;-73
2022/08/29 01:51:29;;;;;;;14.80;6.53;;;16.30;99.90;;;;;;5084805;28;20111;-73
2022/08/29 01:53:55;;;;;;;10.23;6.15;;;16.40;99.90;;;;;;5069908;28;20453;-73
2022/08/29 01:56:24;;;;;;;11.80;6.40;;;16.30;99.90;;;;;;5083676;28;20546;-73
2022/08/29 01:58:52;;;;;;;10.13;6.10;;;16.30;99.90;;;;;;5087212;28;20754;-73
2022/08/29 02:01:21;;;;;;;11.60;6.75;;;16.30;99.90;;;;;;5085168;28;20127;-73
2022/08/29 02:03:46;;;;;;;13.20;6.43;;;16.30;99.90;;;;;;5080289;28;20048;-71
2022/08/29 02:06:12;;;;;;;17.75;8.05;;;16.30;99.90;;;;;;5086012;28;20040;-74
2022/08/29 02:08:40;;;;;;;14.75;7.68;;;16.30;99.90;;;;;;5085545;28;20036;-73
2022/08/29 02:11:10;;;;;;;12.82;6.00;;;16.30;99.90;;;;;;5084976;28;20093;-74
2022/08/29 02:13:44;;;;;;;12.82;6.10;;;16.30;99.90;;;;;;5086935;28;20036;-74
2022/08/29 02:16:10;;;;;;;16.25;6.38;;;16.30;99.90;;;;;;5086398;28;20048;-73
2022/08/29 02:18:35;;;;;;;12.85;7.38;;;16.30;99.90;;;;;;5081193;28;20413;-73
2022/08/29 02:21:02;;;;;;;15.52;6.35;;;16.30;99.90;;;;;;5087881;28;20040;-73
2022/08/29 02:23:27;;;;;;;16.88;7.68;;;16.30;99.90;;;;;;5088666;28;20047;-73
2022/08/29 02:25:53;;;;;;;11.70;6.30;;;16.30;99.90;;;;;;5086032;28;20052;-73
2022/08/29 02:28:20;;;;;;;13.93;6.28;;;16.30;99.90;;;;;;5085387;28;20493;-73
2022/08/29 02:30:48;;;;;;;13.50;7.07;;;16.30;99.90;;;;;;5085475;28;20047;-73
2022/08/29 02:33:16;;;;;;;16.05;6.80;;;16.30;99.90;;;;;;5079114;28;20044;-73
2022/08/29 02:35:42;;;;;;;15.18;7.30;;;16.30;99.90;;;;;;5086163;28;20209;-73
2022/08/29 02:38:09;;;;;;;16.02;7.07;;;16.20;99.90;;;;;;5086642;28;20424;-73
2022/08/29 02:40:35;;;;;;;12.70;7.85;;;16.30;99.90;;;;;;5086514;28;20041;-73
2022/08/29 02:43:02;;;;;;;14.20;6.68;;;16.30;99.90;;;;;;5084035;28;20063;-73
2022/08/29 02:45:46;;;;;;;11.48;6.00;;;16.30;99.90;;;;;;5084608;28;20119;-73
2022/08/29 02:48:13;;;;;;;10.52;6.35;;;16.30;99.90;;;;;;5073671;28;20051;-73
2022/08/29 02:50:42;;;;;;;8.63;5.65;;;16.20;99.90;;;;;;5085880;28;20052;-73
2022/08/29 02:53:10;;;;;;;15.27;7.68;;;16.30;99.90;;;;;;5096035;28;20381;-73
2022/08/29 02:55:36;;;;;;;;;;;16.20;99.90;;;;;;5100157;28;20044;-73
2022/08/29 02:58:02;;;;;;;18.55;7.50;;;16.20;99.90;;;;;;5091684;28;19968;-73
2022/08/29 03:00:28;;;;;;;13.85;6.40;;;16.20;99.90;;;;;;5090031;28;20413;-73
2022/08/29 03:02:55;;;;;;;12.85;7.28;;;16.20;99.90;;;;;;5089351;28;20064;-73
2022/08/29 03:05:26;;;;;;;14.23;6.45;;;16.20;99.90;;;;;;5091413;28;20044;-72
2022/08/29 03:07:55;;;;;;;14.48;6.35;;;16.20;99.90;;;;;;5107339;28;20119;-73
2022/08/29 03:10:21;;;;;;;11.57;6.45;;;16.20;99.90;;;;;;5059227;28;20119;-73
2022/08/29 03:12:48;;;;;;;16.10;6.47;;;16.30;99.90;;;;;;5090277;28;20043;-73
2022/08/29 03:15:14;;;;;;;12.40;6.05;;;16.30;99.90;;;;;;5098903;28;20036;-73
2022/08/29 03:17:40;;;;;;;18.50;7.07;;;16.20;99.90;;;;;;5088832;28;20044;-73
2022/08/29 03:20:08;;;;;;;12.93;6.30;;;16.30;99.90;;;;;;5090080;28;20048;-73
2022/08/29 03:22:35;;;;;;;12.65;6.20;;;16.30;99.90;;;;;;5082413;28;20589;-73
2022/08/29 03:25:01;;;;;;;13.93;5.55;;;16.30;99.90;;;;;;5088138;28;20413;-73
2022/08/29 03:27:28;;;;;;;11.48;5.47;;;16.30;99.90;;;;;;5090006;28;20036;-73
2022/08/29 03:29:55;;;;;;;17.75;6.63;;;16.30;99.90;;;;;;5096532;28;20048;-73
2022/08/29 03:32:21;;;;;;;12.85;5.47;;;16.30;99.90;;;;;;5090730;28;20412;-73
2022/08/29 03:34:46;;;;;;;12.45;5.57;;;16.30;99.90;;;;;;5089172;28;20044;-73
2022/08/29 03:37:12;;;;;;;14.90;6.13;;;16.30;99.90;;;;;;5090669;28;20049;-73
2022/08/29 03:39:38;;;;;;;15.68;5.60;;;16.30;99.90;;;;;;5089600;28;20048;-73
2022/08/29 03:42:05;;;;;;;9.43;4.55;;;16.30;99.90;;;;;;5076263;28;20051;-73
2022/08/29 03:44:36;;;;;;;13.48;5.88;;;16.30;99.90;;;;;;5090667;28;20442;-73
2022/08/29 03:47:02;;;;;;;16.08;5.78;;;16.30;99.90;;;;;;5077117;28;20033;-73
2022/08/29 03:49:28;;;;;;;13.65;5.13;;;16.30;99.90;;;;;;5088310;28;20071;-73
2022/08/29 03:51:54;;;;;;;15.27;5.75;;;16.30;99.90;;;;;;5090870;28;20514;-73
2022/08/29 03:54:19;;;;;;;17.40;5.90;;;16.20;99.90;;;;;;5090303;28;20048;-73
2022/08/29 03:56:46;;;;;;;15.85;4.82;;;16.30;99.90;;;;;;5090624;28;20468;-73
2022/08/29 03:59:12;;;;;;;10.80;4.93;;;16.20;99.90;;;;;;5074800;28;20062;-73
2022/08/29 04:01:37;;;;;;;14.73;4.40;;;16.30;99.90;;;;;;5109807;28;20059;-73
2022/08/29 04:04:05;;;;;;;15.73;7.10;;;16.30;99.90;;;;;;5095524;28;20044;-73
2022/08/29 04:06:32;;;;;;;15.70;5.68;;;16.30;99.90;;;;;;5107912;28;20453;-73
2022/08/29 04:08:58;;;;;;;13.18;5.05;;;16.20;99.90;;;;;;5113145;28;20113;-73
2022/08/29 04:11:25;;;;;;;13.25;6.38;;;16.20;99.90;;;;;;5121734;27;20048;-73
2022/08/29 04:13:52;;;;;;;9.70;5.03;;;16.20;99.90;;;;;;5095728;28;20101;-72
2022/08/29 04:16:26;;;;;;;13.07;5.82;;;16.30;99.90;;;;;;5111352;27;20044;-73
2022/08/29 04:18:51;;;;;;;20.83;5.28;;;16.20;99.90;;;;;;5081626;28;20044;-73
2022/08/29 04:21:18;;;;;;;14.10;5.72;;;16.20;99.90;;;;;;5104381;28;20408;-73
2022/08/29 04:23:48;;;;;;;11.55;5.70;;;16.20;99.90;;;;;;5105147;28;20091;-73
2022/08/29 04:26:16;;;;;;;16.50;5.70;;;16.20;99.90;;;;;;5103631;28;20544;-73
2022/08/29 04:28:42;;;;;;;12.68;6.05;;;16.20;99.90;;;;;;5089947;28;20103;-73
2022/08/29 04:31:18;;;;;;;16.40;6.00;;;16.20;99.90;;;;;;5102841;28;20039;-73
2022/08/29 04:33:45;;;;;;;16.40;6.28;;;16.20;99.90;;;;;;5091558;28;20389;-73
2022/08/29 04:36:12;;;;;;;17.38;6.05;;;16.20;99.90;;;;;;5091736;28;20043;-73
2022/08/29 04:38:37;;;;;;;16.17;6.75;;;16.10;99.90;;;;;;5092124;28;20496;-73
2022/08/29 04:41:08;;;;;;;10.40;6.28;;;16.10;99.90;;;;;;5091419;28;20048;-73
2022/08/29 04:43:34;;;;;;;10.68;5.22;;;16.10;99.90;;;;;;5110257;28;20097;-73
2022/08/29 04:46:00;;;;;;;19.35;5.07;;;16.10;99.90;;;;;;5109756;28;20052;-73
2022/08/29 04:48:28;;;;;;;16.25;5.35;;;16.10;99.90;;;;;;5109341;28;20052;-73
2022/08/29 04:50:58;;;;;;;13.48;6.32;;;16.10;99.90;;;;;;5093586;28;20059;-73
2022/08/29 04:53:25;;;;;;;17.10;6.50;;;16.10;99.90;;;;;;5109338;28;20910;-73
2022/08/29 04:56:02;;;;;;;16.75;7.10;;;16.10;99.90;;;;;;5109541;27;20047;-73
2022/08/29 04:58:29;;;;;;;13.70;6.60;;;16.10;99.90;;;;;;5091355;28;20542;-73
2022/08/29 05:00:55;;;;;;;11.23;6.05;;;16.10;99.90;;;;;;5090435;28;20067;-73
2022/08/29 05:03:22;;;;;;;10.85;5.82;;;16.00;99.90;;;;;;5110037;28;20100;-73
2022/08/29 05:06:10;;;;;;;10.07;5.78;;;16.10;99.90;;;;;;5092783;28;20048;-72
2022/08/29 05:08:46;;;;;;;11.70;5.88;;;16.00;99.90;;;;;;5074556;28;20040;-73
2022/08/29 05:11:16;;;;;;;10.60;6.05;;;16.00;99.90;;;;;;5074890;28;20090;-73
2022/08/29 05:13:42;;;;;;;12.52;6.63;;;16.00;99.90;;;;;;5081873;28;20158;-73
2022/08/29 05:16:10;;;;;;;21.45;6.38;;;16.00;99.90;;;;;;5071571;28;20056;-73
2022/08/29 05:18:38;;;;;;;15.32;6.40;;;16.00;99.90;;;;;;5074078;28;20055;-73
2022/08/29 05:21:04;;;;;;;10.13;5.47;;;16.00;99.90;;;;;;5090777;28;20052;-73
2022/08/29 05:23:30;;;;;;;21.40;6.72;;;16.10;99.90;;;;;;5090838;28;20053;-73
2022/08/29 05:25:59;;;;;;;12.65;5.63;;;16.10;99.90;;;;;;5084264;28;20853;-73
2022/08/29 05:28:26;;;;;;;12.10;6.13;;;16.10;99.90;;;;;;5106889;28;20035;-73
2022/08/29 05:30:52;;;;;;;12.45;5.88;;;16.10;99.90;;;;;;5098802;28;20489;-73
2022/08/29 05:33:18;;;;;;;16.15;6.72;;;16.10;99.90;;;;;;5097949;28;20054;-72
2022/08/29 05:35:45;;;;;;;18.00;6.30;;;16.10;99.90;;;;;;5100262;28;20117;-76
2022/08/29 05:38:13;;;;;;;8.50;4.90;;;16.20;99.90;;;;;;5062762;28;20178;-76
2022/08/29 05:40:39;;;;;;;15.52;5.50;;;16.20;99.90;;;;;;5086059;28;20397;-77
2022/08/29 05:43:06;;;;;;;11.27;5.78;;;16.20;99.90;;;;;;5108023;28;20416;-78
2022/08/29 05:45:31;;;;;;;8.63;4.97;;;16.30;99.90;;;;;;5090382;28;20738;-77
2022/08/29 05:48:02;;;;;;;12.13;5.85;;;16.40;99.90;;;;;;5084159;28;20130;-76
2022/08/29 05:50:28;;;;;;;10.93;6.13;;;16.40;99.90;;;;;;5073208;28;20078;-76
2022/08/29 05:52:54;;;;;;;14.90;6.28;;;16.40;99.90;;;;;;5087738;28;20484;-75
2022/08/29 05:55:19;;;;;;;11.38;5.65;;;16.50;99.90;;;;;;5088883;28;20227;-76
2022/08/29 05:57:45;;;;;;;10.27;5.82;;;16.60;99.90;;;;;;5089778;28;20461;-76
2022/08/29 06:00:11;;;;;;;15.38;6.00;;;16.70;99.90;;;;;;5072885;28;20052;-75
2022/08/29 06:02:37;;;;;;;14.32;5.07;;;16.70;99.90;;;;;;5074560;28;20055;-77
2022/08/29 06:05:04;;;;;;;12.68;5.18;;;16.80;99.90;;;;;;5106964;28;20070;-76
2022/08/29 06:07:31;;;;;;;20.10;5.90;;;16.80;99.90;;;;;;5063065;28;20421;-74
2022/08/29 06:09:57;;;;;;;15.38;5.30;;;16.90;99.90;;;;;;5084558;28;20059;-75
2022/08/29 06:12:24;;;;;;;9.32;5.70;;;16.90;99.90;;;;;;5089802;28;20663;-75
2022/08/29 06:14:50;;;;;;;14.13;5.07;;;17.00;99.90;;;;;;5107197;28;20484;-76
2022/08/29 06:17:15;;;;;;;7.13;5.10;;;17.00;99.90;;;;;;5089128;28;20072;-76
2022/08/29 06:19:41;;;;;;;11.48;5.28;;;17.10;99.90;;;;;;5106184;28;20055;-75
2022/08/29 06:22:08;;;;;;;9.20;6.10;;;17.20;99.90;;;;;;5108369;28;20492;-76
2022/08/29 06:24:34;;;;;;;10.55;6.28;;;17.20;99.90;;;;;;5117749;27;20153;-76
2022/08/29 06:27:01;;;;;;;11.80;5.05;;;17.20;99.90;;;;;;5099385;28;20070;-77
2022/08/29 06:29:27;;;;;;;13.20;7.35;;;17.30;99.90;;;;;;5102651;28;20040;-74
2022/08/29 06:31:54;;;;;;;10.45;4.68;;;17.40;99.90;;;;;;5094055;28;20076;-71
2022/08/29 06:34:21;;;;;;;9.35;5.45;;;17.50;99.90;;;;;;5089675;28;20503;-80
2022/08/29 06:36:46;;;;;;;9.80;5.25;;;17.80;99.90;;;;;;5089510;28;20051;-79
2022/08/29 06:39:12;;;;;;;9.65;4.93;;;17.80;99.90;;;;;;5088058;28;20040;-77
2022/08/29 06:41:39;;;;;;;15.65;6.00;;;17.90;99.90;;;;;;5090240;28;20452;-76
2022/08/29 06:44:07;;;;;;;13.80;5.88;;;18.00;99.90;;;;;;5092537;28;20409;-77
2022/08/29 06:46:37;;;;;;;8.85;5.20;;;18.00;99.90;;;;;;5090780;28;20039;-77
2022/08/29 06:49:06;;;;;;;47.42;7.97;;;18.10;99.90;;;;;;5090566;28;20416;-76
2022/08/29 06:51:34;;;;;;;14.30;5.07;;;18.10;99.90;;;;;;5089266;28;20564;-76
2022/08/29 06:54:01;;;;;;;7.25;4.43;;;18.10;99.90;;;;;;5089623;28;20051;-77
2022/08/29 06:56:27;;;;;;;17.63;5.93;;;18.10;99.90;;;;;;5109099;28;20044;-76
2022/08/29 06:58:53;;;;;;;13.38;4.82;;;18.20;99.90;;;;;;5086522;28;20943;-75
2022/08/29 07:01:20;;;;;;;12.05;5.45;;;18.30;99.90;;;;;;5082843;28;20047;-76
2022/08/29 07:03:46;;;;;;;16.80;7.53;;;18.30;99.90;;;;;;5080598;28;20051;-77
2022/08/29 07:06:12;;;;;;;15.05;7.50;;;18.30;99.90;;;;;;5075529;28;20040;-77
2022/08/29 07:08:38;;;;;;;21.17;7.07;;;18.40;99.90;;;;;;5082327;28;20052;-78
2022/08/29 07:11:04;;;;;;;20.15;6.40;;;18.50;99.90;;;;;;5078208;28;20125;-78
2022/08/29 07:13:30;;;;;;;16.63;6.40;;;18.60;99.90;;;;;;5094110;28;20132;-78
2022/08/29 07:15:56;;;;;;;17.05;5.50;;;18.70;99.90;;;;;;5070781;28;20104;-78
2022/08/29 07:18:23;;;;;;;20.58;5.75;;;18.80;99.90;;;;;;5092850;28;20400;-77
2022/08/29 07:20:48;;;;;;;11.43;4.95;;;18.90;99.90;;;;;;5092141;28;20044;-77
2022/08/29 07:23:14;;;;;;;16.70;5.47;;;19.00;99.90;;;;;;5080300;28;20039;-77
2022/08/29 07:25:40;;;;;;;14.60;6.55;;;19.10;99.90;;;;;;5103994;28;20385;-77
2022/08/29 07:28:06;;;;;;;11.73;5.75;;;19.20;99.90;;;;;;5084440;28;20058;-76
2022/08/29 07:30:32;;;;;;;17.08;5.70;;;19.30;99.90;;;;;;5086265;28;20416;-76
2022/08/29 07:32:58;;;;;;;16.85;5.57;;;19.30;99.90;;;;;;5093204;28;20043;-77
2022/08/29 07:35:25;;;;;;;19.08;5.88;;;19.30;99.90;;;;;;5111444;28;20112;-78
2022/08/29 07:37:56;;;;;;;11.90;5.65;;;19.30;99.90;;;;;;5099390;28;20063;-79
2022/08/29 07:40:22;;;;;;;19.77;6.38;;;19.40;99.90;;;;;;5092791;28;20059;-79
2022/08/29 07:42:47;;;;;;;28.73;5.78;;;19.40;99.90;;;;;;5089445;28;20047;-79
2022/08/29 07:45:13;;;;;;;10.95;5.53;;;19.40;99.90;;;;;;5089009;28;20047;-79
2022/08/29 07:47:40;;;;;;;18.48;7.03;;;19.40;99.90;;;;;;5090541;28;20680;-79
2022/08/29 07:50:08;;;;;;;15.95;6.28;;;19.50;99.90;;;;;;5095812;28;20047;-80
2022/08/29 07:52:34;;;;;;;15.07;6.95;;;19.40;99.90;;;;;;5095923;28;20128;-79
2022/08/29 07:55:00;;;;;;;14.40;7.32;;;19.40;99.90;;;;;;5111926;28;20122;-80
2022/08/29 07:57:25;;;;;;;12.63;6.88;;;19.50;99.90;;;;;;5110854;28;20044;-79
2022/08/29 07:59:51;;;;;;;13.10;6.18;;;19.80;99.90;;;;;;5118158;28;20058;-80
2022/08/29 08:02:17;;;;;;;10.73;5.53;;;20.00;99.90;;;;;;5127170;28;20047;-79
2022/08/29 08:04:43;;;;;;;12.60;6.70;;;20.20;99.90;;;;;;5119411;28;20047;-78
2022/08/29 08:07:11;;;;;;;17.55;6.50;;;20.40;99.90;;;;;;5122401;28;20071;-78
2022/08/29 08:09:38;;;;;;;15.38;6.15;;;20.40;99.90;;;;;;5098242;28;20036;-77
2022/08/29 08:12:05;;;;;;;7.38;5.20;;;20.40;99.90;;;;;;5115664;28;20051;-77
2022/08/29 08:14:32;;;;;;;16.33;6.45;;;20.30;99.90;;;;;;5108471;28;20417;-74
2022/08/29 08:16:58;;;;;;;13.90;6.88;;;20.20;99.90;;;;;;5084730;28;20058;-74
2022/08/29 08:19:25;;;;;;;10.57;6.55;;;20.30;99.90;;;;;;5066348;28;20043;-76
2022/08/29 08:21:52;;;;;;;23.95;7.75;;;20.30;99.90;;;;;;5087386;28;20063;-75
2022/08/29 08:24:18;;;;;;;22.63;8.13;;;20.40;99.90;;;;;;5095908;28;20048;-76
2022/08/29 08:26:44;;;;;;;17.35;7.40;;;20.30;99.90;;;;;;5086277;28;20040;-75
2022/08/29 08:29:11;;;;;;;16.50;7.38;;;20.30;99.90;;;;;;5110098;28;20043;-75
2022/08/29 08:31:49;;;;;;;17.10;6.43;;;20.30;99.90;;;;;;5094536;27;20526;-76
2022/08/29 08:34:16;;;;;;;13.35;6.72;;;20.40;99.90;;;;;;5098287;28;20043;-76
2022/08/29 08:36:43;;;;;;;17.77;7.07;;;20.50;99.90;;;;;;5094214;28;20572;-76
2022/08/29 08:39:10;;;;;;;23.83;8.10;;;20.80;99.90;;;;;;5078891;28;20080;-77
2022/08/29 08:41:51;;;;;;;13.95;7.30;;;20.80;99.90;;;;;;5116504;28;20047;-76
2022/08/29 08:44:48;;;;;;;15.32;7.70;;;21.00;99.90;;;;;;5098543;28;20043;-76
2022/08/29 08:47:23;;;;;;;15.43;7.25;;;21.20;99.90;;;;;;5086409;28;20071;-77
2022/08/29 08:50:00;;;;;;;19.55;6.78;;;21.10;99.90;;;;;;5098453;28;20535;-76
2022/08/29 08:52:36;;;;;;;14.90;6.55;;;21.30;99.90;;;;;;5099985;28;20052;-77
2022/08/29 08:55:13;;;;;;;16.88;7.03;;;21.40;99.90;;;;;;5098131;28;20047;-76
2022/08/29 08:57:48;;;;;;;13.88;7.78;;;21.60;99.90;;;;;;5080954;28;20050;-76
2022/08/29 09:00:14;;;;;;;18.02;7.25;;;21.90;99.90;;;;;;5098353;28;20059;-77
2022/08/29 09:03:03;;;;;;;13.65;6.53;;;22.20;99.90;;;;;;5096293;28;20040;-77
2022/08/29 09:05:34;;;;;;;12.20;7.18;;;22.30;99.90;;;;;;5095065;28;20036;-76
2022/08/29 09:08:39;;;;;;;17.38;7.75;;;22.30;99.90;;;;;;5083736;28;20119;-77
2022/08/29 09:11:28;;;;;;;13.80;7.97;;;22.30;99.90;;;;;;5052450;28;20048;-77
2022/08/29 09:14:27;;;;;;;21.33;7.35;;;22.10;99.90;;;;;;5078225;28;20678;-74
2022/08/29 09:16:57;;;;;;;21.70;6.38;;;22.20;99.90;;;;;;5088552;28;20056;-74
2022/08/29 09:19:25;;;;;;;20.25;8.05;;;22.20;99.90;;;;;;5088234;28;20124;-72
2022/08/29 09:21:57;;;;;;;16.17;6.65;;;22.10;99.90;;;;;;5087229;28;20055;-71
2022/08/29 09:24:35;;;;;;;17.55;7.43;;;22.20;99.90;;;;;;5088898;28;20102;-72
2022/08/29 09:27:01;;;;;;;;;;;22.20;99.90;;;;;;5079236;28;20401;-72
2022/08/29 09:29:29;;;;;;;10.60;5.93;;;22.10;99.90;;;;;;5081911;28;19921;-72
2022/08/29 09:32:11;;;;;;;13.65;8.05;;;22.10;99.90;;;;;;5084470;28;20444;-71
2022/08/29 09:34:46;;;;;;;16.15;8.30;;;22.20;99.90;;;;;;5076022;28;20120;-71
2022/08/29 09:37:21;;;;;;;20.00;7.97;;;22.30;99.90;;;;;;5080476;28;20130;-71
2022/08/29 09:40:03;;;;;;;14.07;6.50;;;22.40;99.90;;;;;;5086579;28;20626;-72
2022/08/29 09:42:34;;;;;;;14.85;7.00;;;22.40;99.90;;;;;;5088523;28;20085;-72
2022/08/29 09:45:14;;;;;;;18.92;6.53;;;22.30;99.90;;;;;;5087035;28;20040;-72
2022/08/29 09:47:39;;;;;;;14.45;6.95;;;22.20;99.90;;;;;;5085357;28;20562;-72
2022/08/29 09:50:24;;;;;;;23.40;8.60;;;22.20;99.90;;;;;;5084400;28;20051;-72
2022/08/29 09:52:59;;;;;;;17.17;7.45;;;22.10;99.90;;;;;;5073486;28;20048;-73
2022/08/29 09:55:38;;;;;;;14.23;7.10;;;22.10;99.90;;;;;;5088052;28;20050;-72
2022/08/29 09:58:17;;;;;;;15.73;6.55;;;22.20;99.90;;;;;;5086936;28;20044;-72
2022/08/29 10:01:03;;;;;;;15.65;7.60;;;22.00;99.90;;;;;;5098404;28;20432;-72
2022/08/29 10:03:32;;;;;;;13.02;6.55;;;22.00;99.90;;;;;;5099464;28;20056;-72
2022/08/29 10:06:19;;;;;;;11.10;5.82;;;21.90;99.90;;;;;;5102298;28;20048;-72
2022/08/29 10:09:11;;;;;;;18.33;6.93;;;21.90;99.90;;;;;;5094118;28;20038;-72
2022/08/29 10:11:48;;;;;;;15.35;7.15;;;21.90;99.90;;;;;;5104906;28;20048;-74
2022/08/29 10:14:28;;;;;;;22.90;7.88;;;21.80;99.90;;;;;;5089135;28;20044;-74
2022/08/29 10:18:19;;;;;;;32.95;9.35;;;21.80;99.90;;;;;;5107142;28;20053;-73
2022/08/29 10:19:46;;;;;;;15.63;7.60;;;21.90;99.90;;;;;;5102407;28;20109;-74
2022/08/29 10:23:01;;;;;;;22.80;7.95;;;21.90;99.90;;;;;;5099729;28;20058;-74
2022/08/29 10:25:36;;;;;;;22.55;7.80;;;22.00;99.90;;;;;;5071837;28;20261;-73
2022/08/29 10:28:16;;;;;;;21.38;7.97;;;22.10;99.90;;;;;;5106013;28;20403;-74
2022/08/29 10:30:55;;;;;;;17.23;7.22;;;22.20;99.90;;;;;;5079786;28;20707;-74
2022/08/29 10:33:46;;;;;;;15.13;6.80;;;22.30;99.90;;;;;;5075112;28;20029;-73
2022/08/29 10:36:18;;;;;;;16.30;7.90;;;22.40;99.90;;;;;;5099968;28;20043;-73
2022/08/29 10:38:55;;;;;;;34.13;6.82;;;22.50;99.90;;;;;;5103943;28;20054;-73
2022/08/29 10:41:44;;;;;;;16.33;8.32;;;22.50;99.90;;;;;;5088846;28;20044;-73
2022/08/29 10:44:34;;;;;;;19.13;6.88;;;22.50;99.90;;;;;;5089610;28;20099;-73
2022/08/29 10:46:59;;;;;;;16.95;7.50;;;22.50;99.90;;;;;;5089203;28;20118;-73
2022/08/29 10:49:47;;;;;;;18.40;7.68;;;22.40;99.90;;;;;;5107960;28;20119;-74
2022/08/29 10:52:24;;;;;;;;;;;22.40;99.90;;;;;;5108117;28;20073;-74
2022/08/29 10:54:58;;;;;;;18.83;8.30;;;22.30;99.90;;;;;;5106132;28;20655;-74
2022/08/29 10:58:02;;;;;;;11.45;7.43;;;22.30;99.90;;;;;;5087592;28;20056;-72
2022/08/29 11:00:40;;;;;;;14.55;7.82;;;22.20;99.90;;;;;;5101013;28;20368;-73
2022/08/29 11:03:30;;;;;;;20.55;7.75;;;22.20;99.90;;;;;;5104506;28;20059;-74
2022/08/29 11:06:09;;;;;;;12.57;7.93;;;22.00;99.90;;;;;;5101743;28;20054;-75
2022/08/29 11:09:02;;;;;;;16.08;7.13;;;22.10;99.90;;;;;;5091936;28;20039;-72
2022/08/29 11:11:35;;;;;;;14.73;6.82;;;22.10;99.90;;;;;;5101392;28;20047;-73
2022/08/29 11:14:28;;;;;;;19.73;7.82;;;22.10;99.90;;;;;;5093383;28;20441;-73
2022/08/29 11:16:57;;;;;;;20.10;7.50;;;22.00;99.90;;;;;;5089909;28;20119;-72
2022/08/29 11:19:22;;;;;;;9.35;6.35;;;21.90;99.90;;;;;;5110228;28;20914;-72
2022/08/29 11:21:51;;;;;;;14.25;7.53;;;21.90;99.90;;;;;;5111494;28;20075;-72
2022/08/29 11:24:19;;;;;;;13.30;7.40;;;21.90;99.90;;;;;;5086866;28;20115;-72
2022/08/29 11:26:53;;;;;;;16.60;7.47;;;21.90;99.90;;;;;;5097139;28;20100;-72
2022/08/29 11:29:30;;;;;;;24.52;9.55;;;21.90;99.90;;;;;;5092605;28;20098;-72
2022/08/29 11:32:19;;;;;;;14.23;6.72;;;22.00;99.90;;;;;;5110722;28;20083;-72
2022/08/29 11:34:47;;;;;;;12.07;6.50;;;22.00;99.90;;;;;;5102962;28;20048;-72
2022/08/29 11:37:50;;;;;;;22.33;7.45;;;22.10;99.90;;;;;;5092978;28;20047;-72
2022/08/29 11:40:49;;;;;;;16.52;7.65;;;22.10;99.90;;;;;;5069545;28;20051;-72
2022/08/29 11:43:21;;;;;;;15.15;7.18;;;22.00;99.90;;;;;;5103959;27;20167;-73
2022/08/29 11:45:56;;;;;;;15.82;6.88;;;22.10;99.90;;;;;;5104687;28;20137;-73
2022/08/29 11:48:41;;;;;;;22.50;8.00;;;22.00;99.90;;;;;;5105594;28;20043;-72
2022/08/29 11:51:33;;;;;;;19.92;8.52;;;22.10;99.90;;;;;;5100239;28;20054;-73
2022/08/29 11:54:27;;;;;;;11.68;6.28;;;22.10;99.90;;;;;;5090332;28;20126;-72
2022/08/29 11:56:58;;;;;;;17.52;6.32;;;22.10;99.90;;;;;;5058447;28;20067;-73
2022/08/29 11:59:49;;;;;;;25.30;9.18;;;22.00;99.90;;;;;;5092312;28;20048;-73
2022/08/29 12:02:28;;;;;;;14.82;7.28;;;22.00;99.90;;;;;;5110378;28;20047;-73
2022/08/29 12:04:56;;;;;;;15.05;6.78;;;22.10;99.90;;;;;;5101071;28;20043;-73
2022/08/29 12:07:41;;;;;;;7.60;6.30;;;22.20;99.90;;;;;;5106808;28;20559;-72
2022/08/29 12:10:24;;;;;;;13.23;7.45;;;22.40;99.90;;;;;;5103955;27;20484;-73
2022/08/29 12:12:58;;;;;;;17.52;7.22;;;22.50;99.90;;;;;;5083377;28;20051;-72
2022/08/29 12:15:37;;;;;;;15.60;6.88;;;22.60;99.90;;;;;;5108277;28;20048;-72
2022/08/29 12:18:08;;;;;;;23.10;8.00;;;22.70;99.90;;;;;;5096416;28;20058;-72
2022/08/29 12:20:42;;;;;;;21.27;8.23;;;22.80;99.90;;;;;;5083896;28;20066;-73
2022/08/29 12:23:11;;;;;;;16.70;8.07;;;22.70;99.90;;;;;;5091937;28;20058;-72
2022/08/29 12:25:41;;;;;;;18.95;7.55;;;22.80;99.90;;;;;;5106131;28;20051;-72
2022/08/29 12:28:36;;;;;;;9.35;5.93;;;22.80;99.90;;;;;;5101371;28;20062;-73
2022/08/29 12:31:34;;;;;;;9.88;6.68;;;22.80;99.90;;;;;;5090149;28;20055;-73
2022/08/29 12:34:06;;;;;;;22.50;7.10;;;22.90;99.90;;;;;;5092038;28;20055;-73
2022/08/29 12:36:50;;;;;;;10.88;6.65;;;22.90;99.90;;;;;;5085830;28;20115;-73
2022/08/29 12:39:32;;;;;;;11.25;6.35;;;23.00;99.90;;;;;;5095288;28;20067;-73
2022/08/29 12:42:15;;;;;;;21.42;7.40;;;23.10;99.90;;;;;;5110189;28;20081;-73
2022/08/29 12:45:26;;;;;;;13.60;6.85;;;23.20;99.90;;;;;;5106542;28;20040;-74
2022/08/29 12:47:59;;;;;;;10.95;5.65;;;23.40;99.90;;;;;;5023507;28;20041;-73
2022/08/29 12:50:29;;;;;;;9.75;6.20;;;23.70;99.90;;;;;;5021965;28;20050;-74
2022/08/29 12:53:00;;;;;;;9.63;6.68;;;23.90;99.90;;;;;;5055190;28;20134;-74
2022/08/29 12:55:38;;;;;;;14.82;6.53;;;24.00;99.90;;;;;;5108139;27;20048;-74
2022/08/29 12:58:05;;;;;;;10.40;5.95;;;24.20;99.90;;;;;;5095838;28;20044;-73
2022/08/29 13:00:32;;;;;;;11.85;5.97;;;24.20;99.90;;;;;;5109127;28;20048;-73
2022/08/29 13:03:01;;;;;;;11.55;6.45;;;24.30;99.90;;;;;;5095814;28;20500;-74